sensor_id;sensor_type;location;lat;lon;timestamp;P1;durP1;ratioP1;P2;durP2;ratioP2
46897;SDS011;32646;50.958;6.258;2023-04-03T00:01:34;8.75;;;3.70;;
46897;SDS011;32646;50.958;6.258;2023-04-03T00:04:01;6.68;;;3.90;;
46897;SDS011;32646;50.958;6.258;2023-04-03T00:06:28;6.20;;;3.60;;
46897;SDS011;32646;50.958;6.258;2023-04-03T00:08:54;7.63;;;3.88;;
46897;SDS011;32646;50.958;6.258;2023-04-03T00:11:21;6.82;;;3.55;;
46897;SDS011;32646;50.958;6.258;2023-04-03T00:13:47;7.93;;;3.70;;
46897;SDS011;32646;50.958;6.258;2023-04-03T00:16:14;9.75;;;3.92;;
46897;SDS011;32646;50.958;6.258;2023-04-03T00:18:41;6.93;;;4.05;;
46897;SDS011;32646;50.958;6.258;2023-04-03T00:21:09;7.60;;;4.43;;
46897;SDS011;32646;50.958;6.258;2023-04-03T00:23:37;12.00;;;4.45;;
46897;SDS011;32646;50.958;6.258;2023-04-03T00:26:04;9.18;;;4.20;;
46897;SDS011;32646;50.958;6.258;2023-04-03T00:28:31;9.02;;;4.32;;
46897;SDS011;32646;50.958;6.258;2023-04-03T00:30:57;7.40;;;4.05;;
46897;SDS011;32646;50.958;6.258;2023-04-03T00:33:24;7.38;;;3.65;;
46897;SDS011;32646;50.958;6.258;2023-04-03T00:35:50;8.55;;;4.43;;
46897;SDS011;32646;50.958;6.258;2023-04-03T00:38:17;7.47;;;3.67;;
46897;SDS011;32646;50.958;6.258;2023-04-03T00:40:46;7.07;;;3.03;;
46897;SDS011;32646;50.958;6.258;2023-04-03T00:43:18;7.43;;;3.63;;
46897;SDS011;32646;50.958;6.258;2023-04-03T00:45:49;7.95;;;3.40;;
46897;SDS011;32646;50.958;6.258;2023-04-03T00:48:18;6.95;;;3.40;;
46897;SDS011;32646;50.958;6.258;2023-04-03T00:50:48;7.68;;;3.70;;
46897;SDS011;32646;50.958;6.258;2023-04-03T00:53:19;6.78;;;3.50;;
46897;SDS011;32646;50.958;6.258;2023-04-03T00:55:50;8.20;;;4.22;;
46897;SDS011;32646;50.958;6.258;2023-04-03T00:58:19;6.90;;;3.47;;
46897;SDS011;32646;50.958;6.258;2023-04-03T01:00:48;7.53;;;3.53;;
46897;SDS011;32646;50.958;6.258;2023-04-03T01:03:18;6.70;;;3.15;;
46897;SDS011;32646;50.958;6.258;2023-04-03T01:05:45;10.55;;;4.20;;
46897;SDS011;32646;50.958;6.258;2023-04-03T01:08:11;8.20;;;3.90;;
46897;SDS011;32646;50.958;6.258;2023-04-03T01:10:38;7.30;;;3.80;;
46897;SDS011;32646;50.958;6.258;2023-04-03T01:13:17;7.88;;;3.65;;
46897;SDS011;32646;50.958;6.258;2023-04-03T01:15:46;7.18;;;3.65;;
46897;SDS011;32646;50.958;6.258;2023-04-03T01:18:12;6.38;;;2.88;;
46897;SDS011;32646;50.958;6.258;2023-04-03T01:26:51;6.18;;;3.53;;
46897;SDS011;32646;50.958;6.258;2023-04-03T01:29:17;9.00;;;3.22;;
46897;SDS011;32646;50.958;6.258;2023-04-03T01:31:48;6.05;;;3.28;;
46897;SDS011;32646;50.958;6.258;2023-04-03T01:34:17;10.63;;;4.15;;
46897;SDS011;32646;50.958;6.258;2023-04-03T01:36:44;7.57;;;3.95;;
46897;SDS011;32646;50.958;6.258;2023-04-03T01:39:11;7.60;;;3.63;;
46897;SDS011;32646;50.958;6.258;2023-04-03T01:41:38;7.40;;;3.35;;
46897;SDS011;32646;50.958;6.258;2023-04-03T01:44:04;7.30;;;3.28;;
46897;SDS011;32646;50.958;6.258;2023-04-03T01:46:31;5.47;;;3.40;;
46897;SDS011;32646;50.958;6.258;2023-04-03T01:48:58;7.13;;;3.40;;
46897;SDS011;32646;50.958;6.258;2023-04-03T01:51:24;9.10;;;3.67;;
46897;SDS011;32646;50.958;6.258;2023-04-03T01:53:51;9.73;;;4.65;;
46897;SDS011;32646;50.958;6.258;2023-04-03T01:56:17;12.35;;;4.57;;
46897;SDS011;32646;50.958;6.258;2023-04-03T01:58:44;9.55;;;4.22;;
46897;SDS011;32646;50.958;6.258;2023-04-03T02:01:10;8.68;;;3.95;;
46897;SDS011;32646;50.958;6.258;2023-04-03T02:03:37;9.48;;;4.53;;
46897;SDS011;32646;50.958;6.258;2023-04-03T02:06:04;11.82;;;5.47;;
46897;SDS011;32646;50.958;6.258;2023-04-03T02:08:31;10.63;;;4.93;;
46897;SDS011;32646;50.958;6.258;2023-04-03T02:10:57;13.60;;;5.45;;
46897;SDS011;32646;50.958;6.258;2023-04-03T02:13:24;10.32;;;5.30;;
46897;SDS011;32646;50.958;6.258;2023-04-03T02:15:50;15.80;;;5.60;;
46897;SDS011;32646;50.958;6.258;2023-04-03T02:18:17;10.00;;;5.38;;
46897;SDS011;32646;50.958;6.258;2023-04-03T02:20:44;10.25;;;5.93;;
46897;SDS011;32646;50.958;6.258;2023-04-03T02:23:12;10.27;;;5.25;;
46897;SDS011;32646;50.958;6.258;2023-04-03T02:25:38;9.75;;;5.35;;
46897;SDS011;32646;50.958;6.258;2023-04-03T02:28:05;11.63;;;5.13;;
46897;SDS011;32646;50.958;6.258;2023-04-03T02:30:32;9.05;;;4.45;;
46897;SDS011;32646;50.958;6.258;2023-04-03T02:32:58;11.02;;;4.90;;
46897;SDS011;32646;50.958;6.258;2023-04-03T02:35:25;11.70;;;5.68;;
46897;SDS011;32646;50.958;6.258;2023-04-03T02:37:52;11.23;;;5.65;;
46897;SDS011;32646;50.958;6.258;2023-04-03T02:40:18;8.85;;;5.65;;
46897;SDS011;32646;50.958;6.258;2023-04-03T02:42:45;11.68;;;5.55;;
46897;SDS011;32646;50.958;6.258;2023-04-03T02:45:11;9.93;;;5.65;;
46897;SDS011;32646;50.958;6.258;2023-04-03T02:47:38;10.63;;;5.88;;
46897;SDS011;32646;50.958;6.258;2023-04-03T02:50:04;8.02;;;4.88;;
46897;SDS011;32646;50.958;6.258;2023-04-03T02:52:31;8.55;;;4.53;;
46897;SDS011;32646;50.958;6.258;2023-04-03T02:54:58;7.78;;;4.35;;
46897;SDS011;32646;50.958;6.258;2023-04-03T02:57:24;8.27;;;4.72;;
46897;SDS011;32646;50.958;6.258;2023-04-03T02:59:51;13.10;;;5.40;;
46897;SDS011;32646;50.958;6.258;2023-04-03T03:02:17;17.95;;;5.38;;
46897;SDS011;32646;50.958;6.258;2023-04-03T03:04:44;8.48;;;4.88;;
46897;SDS011;32646;50.958;6.258;2023-04-03T03:07:11;7.47;;;4.45;;
46897;SDS011;32646;50.958;6.258;2023-04-03T03:09:37;12.10;;;5.68;;
46897;SDS011;32646;50.958;6.258;2023-04-03T03:12:04;9.43;;;5.90;;
46897;SDS011;32646;50.958;6.258;2023-04-03T03:14:30;13.23;;;4.70;;
46897;SDS011;32646;50.958;6.258;2023-04-03T03:16:57;11.75;;;5.45;;
46897;SDS011;32646;50.958;6.258;2023-04-03T03:19:23;12.98;;;5.93;;
46897;SDS011;32646;50.958;6.258;2023-04-03T03:21:50;10.60;;;6.07;;
46897;SDS011;32646;50.958;6.258;2023-04-03T03:24:16;13.77;;;6.93;;
46897;SDS011;32646;50.958;6.258;2023-04-03T03:26:43;13.15;;;7.63;;
46897;SDS011;32646;50.958;6.258;2023-04-03T03:29:09;17.52;;;7.38;;
46897;SDS011;32646;50.958;6.258;2023-04-03T03:31:36;17.42;;;7.18;;
46897;SDS011;32646;50.958;6.258;2023-04-03T03:34:03;15.40;;;7.88;;
46897;SDS011;32646;50.958;6.258;2023-04-03T03:36:29;15.20;;;6.63;;
46897;SDS011;32646;50.958;6.258;2023-04-03T03:38:56;16.00;;;7.13;;
46897;SDS011;32646;50.958;6.258;2023-04-03T03:41:22;15.73;;;7.95;;
46897;SDS011;32646;50.958;6.258;2023-04-03T03:43:49;16.15;;;6.78;;
46897;SDS011;32646;50.958;6.258;2023-04-03T03:46:15;11.00;;;5.68;;
46897;SDS011;32646;50.958;6.258;2023-04-03T03:48:42;13.23;;;6.47;;
46897;SDS011;32646;50.958;6.258;2023-04-03T03:51:08;13.27;;;7.70;;
46897;SDS011;32646;50.958;6.258;2023-04-03T03:53:35;14.63;;;7.25;;
46897;SDS011;32646;50.958;6.258;2023-04-03T03:56:01;12.32;;;6.20;;
46897;SDS011;32646;50.958;6.258;2023-04-03T03:58:28;12.88;;;6.15;;
46897;SDS011;32646;50.958;6.258;2023-04-03T04:00:55;15.05;;;6.68;;
46897;SDS011;32646;50.958;6.258;2023-04-03T04:03:21;14.57;;;7.15;;
46897;SDS011;32646;50.958;6.258;2023-04-03T04:05:48;11.68;;;5.57;;
46897;SDS011;32646;50.958;6.258;2023-04-03T04:08:14;11.93;;;6.40;;
46897;SDS011;32646;50.958;6.258;2023-04-03T04:10:41;15.48;;;7.00;;
46897;SDS011;32646;50.958;6.258;2023-04-03T04:13:08;15.35;;;7.00;;
46897;SDS011;32646;50.958;6.258;2023-04-03T04:15:34;15.57;;;7.55;;
46897;SDS011;32646;50.958;6.258;2023-04-03T04:18:01;16.80;;;8.27;;
46897;SDS011;32646;50.958;6.258;2023-04-03T04:20:28;18.35;;;8.60;;
46897;SDS011;32646;50.958;6.258;2023-04-03T04:22:54;19.83;;;7.93;;
46897;SDS011;32646;50.958;6.258;2023-04-03T04:25:21;20.65;;;8.80;;
46897;SDS011;32646;50.958;6.258;2023-04-03T04:27:48;19.85;;;8.38;;
46897;SDS011;32646;50.958;6.258;2023-04-03T04:30:14;20.27;;;7.93;;
46897;SDS011;32646;50.958;6.258;2023-04-03T04:32:41;19.27;;;9.30;;
46897;SDS011;32646;50.958;6.258;2023-04-03T04:35:08;15.25;;;7.72;;
46897;SDS011;32646;50.958;6.258;2023-04-03T04:37:34;17.58;;;8.93;;
46897;SDS011;32646;50.958;6.258;2023-04-03T04:40:01;15.52;;;8.48;;
46897;SDS011;32646;50.958;6.258;2023-04-03T04:42:28;10.80;;;5.78;;
46897;SDS011;32646;50.958;6.258;2023-04-03T04:44:54;11.57;;;6.18;;
46897;SDS011;32646;50.958;6.258;2023-04-03T04:47:21;13.25;;;5.63;;
46897;SDS011;32646;50.958;6.258;2023-04-03T04:49:48;10.20;;;5.53;;
46897;SDS011;32646;50.958;6.258;2023-04-03T04:52:14;12.60;;;5.85;;
46897;SDS011;32646;50.958;6.258;2023-04-03T04:54:41;13.43;;;5.75;;
46897;SDS011;32646;50.958;6.258;2023-04-03T04:57:07;18.88;;;8.98;;
46897;SDS011;32646;50.958;6.258;2023-04-03T04:59:34;15.63;;;7.25;;
46897;SDS011;32646;50.958;6.258;2023-04-03T05:02:00;17.67;;;7.70;;
46897;SDS011;32646;50.958;6.258;2023-04-03T05:04:27;12.68;;;6.00;;
46897;SDS011;32646;50.958;6.258;2023-04-03T05:06:54;10.93;;;5.60;;
46897;SDS011;32646;50.958;6.258;2023-04-03T05:09:20;10.80;;;5.32;;
46897;SDS011;32646;50.958;6.258;2023-04-03T05:11:47;10.07;;;5.43;;
46897;SDS011;32646;50.958;6.258;2023-04-03T05:14:13;8.85;;;4.55;;
46897;SDS011;32646;50.958;6.258;2023-04-03T05:16:40;12.40;;;4.82;;
46897;SDS011;32646;50.958;6.258;2023-04-03T05:19:07;8.35;;;5.18;;
46897;SDS011;32646;50.958;6.258;2023-04-03T05:21:34;8.88;;;4.38;;
46897;SDS011;32646;50.958;6.258;2023-04-03T05:24:00;11.52;;;4.75;;
46897;SDS011;32646;50.958;6.258;2023-04-03T05:26:27;13.27;;;5.13;;
46897;SDS011;32646;50.958;6.258;2023-04-03T05:28:54;15.30;;;5.63;;
46897;SDS011;32646;50.958;6.258;2023-04-03T05:31:20;8.40;;;4.28;;
46897;SDS011;32646;50.958;6.258;2023-04-03T05:33:48;8.90;;;4.63;;
46897;SDS011;32646;50.958;6.258;2023-04-03T05:36:15;11.63;;;4.90;;
46897;SDS011;32646;50.958;6.258;2023-04-03T05:38:42;9.63;;;4.95;;
46897;SDS011;32646;50.958;6.258;2023-04-03T05:41:09;12.32;;;4.38;;
46897;SDS011;32646;50.958;6.258;2023-04-03T05:43:35;9.50;;;4.57;;
46897;SDS011;32646;50.958;6.258;2023-04-03T05:46:02;9.98;;;4.53;;
46897;SDS011;32646;50.958;6.258;2023-04-03T05:48:28;8.85;;;4.22;;
46897;SDS011;32646;50.958;6.258;2023-04-03T05:50:55;10.85;;;4.70;;
46897;SDS011;32646;50.958;6.258;2023-04-03T05:53:23;9.10;;;4.45;;
46897;SDS011;32646;50.958;6.258;2023-04-03T05:55:57;12.38;;;4.25;;
46897;SDS011;32646;50.958;6.258;2023-04-03T05:58:23;11.48;;;4.78;;
46897;SDS011;32646;50.958;6.258;2023-04-03T06:00:50;9.73;;;4.50;;
46897;SDS011;32646;50.958;6.258;2023-04-03T06:03:16;8.73;;;4.93;;
46897;SDS011;32646;50.958;6.258;2023-04-03T06:05:43;12.20;;;5.22;;
46897;SDS011;32646;50.958;6.258;2023-04-03T06:08:10;8.90;;;4.50;;
46897;SDS011;32646;50.958;6.258;2023-04-03T06:10:36;10.20;;;5.82;;
46897;SDS011;32646;50.958;6.258;2023-04-03T06:13:03;9.77;;;5.30;;
46897;SDS011;32646;50.958;6.258;2023-04-03T06:15:30;11.45;;;4.22;;
46897;SDS011;32646;50.958;6.258;2023-04-03T06:17:56;10.50;;;4.68;;
46897;SDS011;32646;50.958;6.258;2023-04-03T06:20:23;10.77;;;4.78;;
46897;SDS011;32646;50.958;6.258;2023-04-03T06:22:49;7.63;;;4.30;;
46897;SDS011;32646;50.958;6.258;2023-04-03T06:25:16;9.35;;;4.47;;
46897;SDS011;32646;50.958;6.258;2023-04-03T06:27:43;8.98;;;3.75;;
46897;SDS011;32646;50.958;6.258;2023-04-03T06:30:09;7.45;;;4.15;;
46897;SDS011;32646;50.958;6.258;2023-04-03T06:32:36;9.15;;;4.53;;
46897;SDS011;32646;50.958;6.258;2023-04-03T06:35:04;8.05;;;4.30;;
46897;SDS011;32646;50.958;6.258;2023-04-03T06:37:31;11.85;;;4.45;;
46897;SDS011;32646;50.958;6.258;2023-04-03T06:39:58;9.35;;;4.30;;
46897;SDS011;32646;50.958;6.258;2023-04-03T06:42:24;8.15;;;4.43;;
46897;SDS011;32646;50.958;6.258;2023-04-03T06:44:51;8.73;;;4.53;;
46897;SDS011;32646;50.958;6.258;2023-04-03T06:47:17;10.73;;;3.80;;
46897;SDS011;32646;50.958;6.258;2023-04-03T06:49:44;9.20;;;3.60;;
46897;SDS011;32646;50.958;6.258;2023-04-03T06:52:11;12.38;;;4.55;;
46897;SDS011;32646;50.958;6.258;2023-04-03T06:54:38;7.60;;;3.78;;
46897;SDS011;32646;50.958;6.258;2023-04-03T06:57:05;9.80;;;3.53;;
46897;SDS011;32646;50.958;6.258;2023-04-03T06:59:32;8.35;;;3.97;;
46897;SDS011;32646;50.958;6.258;2023-04-03T07:01:58;7.00;;;3.50;;
46897;SDS011;32646;50.958;6.258;2023-04-03T07:04:25;7.47;;;3.42;;
46897;SDS011;32646;50.958;6.258;2023-04-03T07:06:52;7.38;;;3.30;;
46897;SDS011;32646;50.958;6.258;2023-04-03T07:09:18;6.82;;;3.60;;
46897;SDS011;32646;50.958;6.258;2023-04-03T07:11:45;6.68;;;3.60;;
46897;SDS011;32646;50.958;6.258;2023-04-03T07:14:12;5.63;;;3.40;;
46897;SDS011;32646;50.958;6.258;2023-04-03T07:16:38;7.18;;;3.83;;
46897;SDS011;32646;50.958;6.258;2023-04-03T07:19:07;6.60;;;3.20;;
46897;SDS011;32646;50.958;6.258;2023-04-03T07:21:34;9.88;;;3.90;;
46897;SDS011;32646;50.958;6.258;2023-04-03T07:24:01;7.70;;;3.75;;
46897;SDS011;32646;50.958;6.258;2023-04-03T07:26:27;6.95;;;4.00;;
46897;SDS011;32646;50.958;6.258;2023-04-03T07:28:53;7.70;;;3.45;;
46897;SDS011;32646;50.958;6.258;2023-04-03T07:31:20;7.80;;;3.05;;
46897;SDS011;32646;50.958;6.258;2023-04-03T07:33:47;6.47;;;2.70;;
46897;SDS011;32646;50.958;6.258;2023-04-03T07:36:18;6.57;;;2.95;;
46897;SDS011;32646;50.958;6.258;2023-04-03T07:38:46;6.40;;;2.58;;
46897;SDS011;32646;50.958;6.258;2023-04-03T07:41:15;5.55;;;2.80;;
46897;SDS011;32646;50.958;6.258;2023-04-03T07:43:43;10.45;;;3.55;;
46897;SDS011;32646;50.958;6.258;2023-04-03T07:46:10;7.18;;;2.80;;
46897;SDS011;32646;50.958;6.258;2023-04-03T07:48:37;5.13;;;2.55;;
46897;SDS011;32646;50.958;6.258;2023-04-03T07:51:04;6.82;;;3.20;;
46897;SDS011;32646;50.958;6.258;2023-04-03T07:53:31;8.02;;;2.67;;
46897;SDS011;32646;50.958;6.258;2023-04-03T07:55:59;10.95;;;3.17;;
46897;SDS011;32646;50.958;6.258;2023-04-03T07:58:26;5.07;;;2.67;;
46897;SDS011;32646;50.958;6.258;2023-04-03T08:00:52;6.10;;;2.70;;
46897;SDS011;32646;50.958;6.258;2023-04-03T08:03:19;7.85;;;2.38;;
46897;SDS011;32646;50.958;6.258;2023-04-03T08:05:47;12.15;;;2.75;;
46897;SDS011;32646;50.958;6.258;2023-04-03T08:08:16;5.35;;;2.75;;
46897;SDS011;32646;50.958;6.258;2023-04-03T08:10:50;5.95;;;2.67;;
46897;SDS011;32646;50.958;6.258;2023-04-03T08:13:18;6.75;;;1.90;;
46897;SDS011;32646;50.958;6.258;2023-04-03T08:15:45;7.68;;;2.70;;
46897;SDS011;32646;50.958;6.258;2023-04-03T08:18:13;5.72;;;1.95;;
46897;SDS011;32646;50.958;6.258;2023-04-03T08:20:41;7.65;;;2.40;;
46897;SDS011;32646;50.958;6.258;2023-04-03T08:23:08;6.25;;;2.30;;
46897;SDS011;32646;50.958;6.258;2023-04-03T08:25:38;4.82;;;1.85;;
46897;SDS011;32646;50.958;6.258;2023-04-03T08:28:06;6.65;;;2.10;;
46897;SDS011;32646;50.958;6.258;2023-04-03T08:30:33;5.72;;;2.17;;
46897;SDS011;32646;50.958;6.258;2023-04-03T08:33:01;6.43;;;1.67;;
46897;SDS011;32646;50.958;6.258;2023-04-03T08:35:28;6.05;;;2.00;;
46897;SDS011;32646;50.958;6.258;2023-04-03T08:37:54;5.88;;;1.90;;
46897;SDS011;32646;50.958;6.258;2023-04-03T08:40:21;9.23;;;1.70;;
46897;SDS011;32646;50.958;6.258;2023-04-03T08:42:51;6.32;;;2.15;;
46897;SDS011;32646;50.958;6.258;2023-04-03T08:48:05;5.47;;;1.77;;
46897;SDS011;32646;50.958;6.258;2023-04-03T08:50:39;5.82;;;2.10;;
46897;SDS011;32646;50.958;6.258;2023-04-03T08:53:17;4.22;;;1.55;;
46897;SDS011;32646;50.958;6.258;2023-04-03T08:55:48;4.90;;;1.70;;
46897;SDS011;32646;50.958;6.258;2023-04-03T08:58:18;4.85;;;1.90;;
46897;SDS011;32646;50.958;6.258;2023-04-03T09:01:00;5.82;;;2.08;;
46897;SDS011;32646;50.958;6.258;2023-04-03T09:03:38;8.05;;;2.10;;
46897;SDS011;32646;50.958;6.258;2023-04-03T09:06:16;5.60;;;1.75;;
46897;SDS011;32646;50.958;6.258;2023-04-03T09:08:53;4.45;;;1.55;;
46897;SDS011;32646;50.958;6.258;2023-04-03T09:11:27;5.35;;;2.00;;
46897;SDS011;32646;50.958;6.258;2023-04-03T09:14:07;5.38;;;1.83;;
46897;SDS011;32646;50.958;6.258;2023-04-03T09:16:40;5.05;;;1.60;;
46897;SDS011;32646;50.958;6.258;2023-04-03T09:21:56;4.78;;;2.45;;
46897;SDS011;32646;50.958;6.258;2023-04-03T09:24:23;4.43;;;1.58;;
46897;SDS011;32646;50.958;6.258;2023-04-03T09:26:53;4.85;;;1.60;;
46897;SDS011;32646;50.958;6.258;2023-04-03T09:29:24;5.32;;;1.52;;
46897;SDS011;32646;50.958;6.258;2023-04-03T09:32:01;4.18;;;1.40;;
46897;SDS011;32646;50.958;6.258;2023-04-03T09:34:36;4.97;;;1.55;;
46897;SDS011;32646;50.958;6.258;2023-04-03T09:37:03;5.15;;;1.98;;
46897;SDS011;32646;50.958;6.258;2023-04-03T09:39:31;4.40;;;1.23;;
46897;SDS011;32646;50.958;6.258;2023-04-03T09:42:19;4.07;;;1.50;;
46897;SDS011;32646;50.958;6.258;2023-04-03T09:44:55;3.97;;;1.00;;
46897;SDS011;32646;50.958;6.258;2023-04-03T09:47:30;4.43;;;1.30;;
46897;SDS011;32646;50.958;6.258;2023-04-03T09:52:46;2.95;;;0.90;;
46897;SDS011;32646;50.958;6.258;2023-04-03T09:55:15;6.47;;;1.55;;
46897;SDS011;32646;50.958;6.258;2023-04-03T09:57:45;3.25;;;0.80;;
46897;SDS011;32646;50.958;6.258;2023-04-03T10:00:22;3.28;;;1.08;;
46897;SDS011;32646;50.958;6.258;2023-04-03T10:02:55;2.88;;;1.00;;
46897;SDS011;32646;50.958;6.258;2023-04-03T10:05:26;3.30;;;0.98;;
46897;SDS011;32646;50.958;6.258;2023-04-03T10:08:10;3.92;;;1.00;;
46897;SDS011;32646;50.958;6.258;2023-04-03T10:10:40;5.03;;;1.30;;
46897;SDS011;32646;50.958;6.258;2023-04-03T10:13:18;2.72;;;0.88;;
46897;SDS011;32646;50.958;6.258;2023-04-03T10:15:51;3.28;;;1.05;;
46897;SDS011;32646;50.958;6.258;2023-04-03T10:20:50;3.50;;;1.02;;
46897;SDS011;32646;50.958;6.258;2023-04-03T10:24:21;3.60;;;1.05;;
46897;SDS011;32646;50.958;6.258;2023-04-03T10:34:38;2.75;;;1.00;;
46897;SDS011;32646;50.958;6.258;2023-04-03T10:37:24;5.00;;;1.30;;
46897;SDS011;32646;50.958;6.258;2023-04-03T10:42:39;2.75;;;0.93;;
46897;SDS011;32646;50.958;6.258;2023-04-03T10:45:18;3.70;;;1.00;;
46897;SDS011;32646;50.958;6.258;2023-04-03T10:56:30;4.65;;;0.98;;
46897;SDS011;32646;50.958;6.258;2023-04-03T10:59:14;4.75;;;1.52;;
46897;SDS011;32646;50.958;6.258;2023-04-03T11:01:46;3.05;;;1.00;;
46897;SDS011;32646;50.958;6.258;2023-04-03T11:04:17;4.18;;;1.10;;
46897;SDS011;32646;50.958;6.258;2023-04-03T11:06:54;4.63;;;1.33;;
46897;SDS011;32646;50.958;6.258;2023-04-03T11:09:33;4.13;;;1.20;;
46897;SDS011;32646;50.958;6.258;2023-04-03T11:12:02;4.15;;;1.52;;
46897;SDS011;32646;50.958;6.258;2023-04-03T11:14:32;4.28;;;1.30;;
46897;SDS011;32646;50.958;6.258;2023-04-03T11:17:04;4.03;;;1.02;;
46897;SDS011;32646;50.958;6.258;2023-04-03T11:19:47;3.58;;;1.00;;
46897;SDS011;32646;50.958;6.258;2023-04-03T11:22:26;2.63;;;0.90;;
46897;SDS011;32646;50.958;6.258;2023-04-03T11:24:58;2.38;;;0.80;;
46897;SDS011;32646;50.958;6.258;2023-04-03T11:33:19;3.35;;;1.00;;
46897;SDS011;32646;50.958;6.258;2023-04-03T11:36:02;4.47;;;1.20;;
46897;SDS011;32646;50.958;6.258;2023-04-03T11:39:07;3.50;;;1.50;;
46897;SDS011;32646;50.958;6.258;2023-04-03T11:41:44;4.30;;;1.27;;
46897;SDS011;32646;50.958;6.258;2023-04-03T11:47:07;3.53;;;0.82;;
46897;SDS011;32646;50.958;6.258;2023-04-03T11:55:41;3.90;;;1.17;;
46897;SDS011;32646;50.958;6.258;2023-04-03T12:05:52;3.10;;;1.10;;
46897;SDS011;32646;50.958;6.258;2023-04-03T12:14:01;3.70;;;1.30;;
46897;SDS011;32646;50.958;6.258;2023-04-03T12:16:41;3.55;;;0.85;;
46897;SDS011;32646;50.958;6.258;2023-04-03T12:40:48;3.22;;;0.98;;
46897;SDS011;32646;50.958;6.258;2023-04-03T12:43:41;3.50;;;0.90;;
46897;SDS011;32646;50.958;6.258;2023-04-03T12:46:21;4.53;;;1.05;;
46897;SDS011;32646;50.958;6.258;2023-04-03T12:48:58;3.60;;;0.93;;
46897;SDS011;32646;50.958;6.258;2023-04-03T12:51:39;4.10;;;1.10;;
46897;SDS011;32646;50.958;6.258;2023-04-03T12:59:49;3.80;;;1.00;;
46897;SDS011;32646;50.958;6.258;2023-04-03T13:04:46;3.15;;;1.00;;
46897;SDS011;32646;50.958;6.258;2023-04-03T13:07:22;2.88;;;0.82;;
46897;SDS011;32646;50.958;6.258;2023-04-03T13:09:55;3.47;;;1.17;;
46897;SDS011;32646;50.958;6.258;2023-04-03T13:12:23;7.85;;;2.55;;
46897;SDS011;32646;50.958;6.258;2023-04-03T13:14:54;2.85;;;0.98;;
46897;SDS011;32646;50.958;6.258;2023-04-03T13:17:22;3.35;;;1.20;;
46897;SDS011;32646;50.958;6.258;2023-04-03T13:19:50;4.45;;;1.15;;
46897;SDS011;32646;50.958;6.258;2023-04-03T13:22:25;2.45;;;0.70;;
46897;SDS011;32646;50.958;6.258;2023-04-03T13:25:09;3.28;;;1.05;;
46897;SDS011;32646;50.958;6.258;2023-04-03T13:27:39;2.00;;;0.70;;
46897;SDS011;32646;50.958;6.258;2023-04-03T13:30:06;2.13;;;0.70;;
46897;SDS011;32646;50.958;6.258;2023-04-03T13:32:45;3.33;;;1.00;;
46897;SDS011;32646;50.958;6.258;2023-04-03T13:40:50;3.30;;;0.70;;
46897;SDS011;32646;50.958;6.258;2023-04-03T13:43:26;3.45;;;1.00;;
46897;SDS011;32646;50.958;6.258;2023-04-03T13:45:59;2.42;;;0.70;;
46897;SDS011;32646;50.958;6.258;2023-04-03T13:48:28;3.88;;;0.80;;
46897;SDS011;32646;50.958;6.258;2023-04-03T13:51:03;3.03;;;1.17;;
46897;SDS011;32646;50.958;6.258;2023-04-03T13:53:43;3.65;;;1.00;;
46897;SDS011;32646;50.958;6.258;2023-04-03T13:56:16;3.13;;;0.88;;
46897;SDS011;32646;50.958;6.258;2023-04-03T13:59:02;3.45;;;1.20;;
46897;SDS011;32646;50.958;6.258;2023-04-03T14:04:33;5.20;;;0.90;;
46897;SDS011;32646;50.958;6.258;2023-04-03T14:07:13;3.30;;;0.70;;
46897;SDS011;32646;50.958;6.258;2023-04-03T14:09:41;2.38;;;0.77;;
46897;SDS011;32646;50.958;6.258;2023-04-03T14:12:12;2.05;;;0.68;;
46897;SDS011;32646;50.958;6.258;2023-04-03T14:14:56;3.30;;;1.00;;
46897;SDS011;32646;50.958;6.258;2023-04-03T14:17:24;4.07;;;1.00;;
46897;SDS011;32646;50.958;6.258;2023-04-03T14:19:52;3.70;;;0.98;;
46897;SDS011;32646;50.958;6.258;2023-04-03T14:22:24;2.75;;;0.82;;
46897;SDS011;32646;50.958;6.258;2023-04-03T14:24:52;3.58;;;1.02;;
46897;SDS011;32646;50.958;6.258;2023-04-03T14:27:23;3.50;;;0.85;;
46897;SDS011;32646;50.958;6.258;2023-04-03T14:29:55;2.42;;;0.90;;
46897;SDS011;32646;50.958;6.258;2023-04-03T14:32:23;3.00;;;0.80;;
46897;SDS011;32646;50.958;6.258;2023-04-03T14:34:51;2.40;;;0.95;;
46897;SDS011;32646;50.958;6.258;2023-04-03T14:37:21;3.15;;;0.95;;
46897;SDS011;32646;50.958;6.258;2023-04-03T14:39:51;2.92;;;1.27;;
46897;SDS011;32646;50.958;6.258;2023-04-03T14:42:20;2.78;;;0.70;;
46897;SDS011;32646;50.958;6.258;2023-04-03T14:44:51;3.67;;;1.02;;
46897;SDS011;32646;50.958;6.258;2023-04-03T14:47:22;3.03;;;0.77;;
46897;SDS011;32646;50.958;6.258;2023-04-03T14:49:57;2.05;;;0.80;;
46897;SDS011;32646;50.958;6.258;2023-04-03T14:52:34;3.40;;;1.15;;
46897;SDS011;32646;50.958;6.258;2023-04-03T14:55:02;3.17;;;0.90;;
46897;SDS011;32646;50.958;6.258;2023-04-03T14:57:31;5.63;;;0.80;;
46897;SDS011;32646;50.958;6.258;2023-04-03T14:59:58;2.90;;;0.80;;
46897;SDS011;32646;50.958;6.258;2023-04-03T15:02:35;2.63;;;0.85;;
46897;SDS011;32646;50.958;6.258;2023-04-03T15:05:04;3.58;;;0.80;;
46897;SDS011;32646;50.958;6.258;2023-04-03T15:07:37;2.95;;;0.93;;
46897;SDS011;32646;50.958;6.258;2023-04-03T15:12:41;3.08;;;1.10;;
46897;SDS011;32646;50.958;6.258;2023-04-03T15:15:08;2.72;;;0.82;;
46897;SDS011;32646;50.958;6.258;2023-04-03T15:17:35;5.03;;;1.70;;
46897;SDS011;32646;50.958;6.258;2023-04-03T15:20:03;4.50;;;0.90;;
46897;SDS011;32646;50.958;6.258;2023-04-03T15:22:37;5.30;;;1.40;;
46897;SDS011;32646;50.958;6.258;2023-04-03T15:25:03;2.90;;;1.00;;
46897;SDS011;32646;50.958;6.258;2023-04-03T15:27:30;3.25;;;0.90;;
46897;SDS011;32646;50.958;6.258;2023-04-03T15:29:57;2.90;;;0.90;;
46897;SDS011;32646;50.958;6.258;2023-04-03T15:32:24;3.78;;;1.17;;
46897;SDS011;32646;50.958;6.258;2023-04-03T15:34:51;3.38;;;1.20;;
46897;SDS011;32646;50.958;6.258;2023-04-03T15:37:21;3.85;;;1.10;;
46897;SDS011;32646;50.958;6.258;2023-04-03T15:39:48;2.95;;;1.08;;
46897;SDS011;32646;50.958;6.258;2023-04-03T15:42:14;5.50;;;1.00;;
46897;SDS011;32646;50.958;6.258;2023-04-03T15:44:41;4.05;;;1.15;;
46897;SDS011;32646;50.958;6.258;2023-04-03T15:47:08;3.35;;;0.82;;
46897;SDS011;32646;50.958;6.258;2023-04-03T15:49:35;2.80;;;0.77;;
46897;SDS011;32646;50.958;6.258;2023-04-03T15:52:02;4.82;;;1.05;;
46897;SDS011;32646;50.958;6.258;2023-04-03T15:54:29;3.40;;;0.90;;
46897;SDS011;32646;50.958;6.258;2023-04-03T15:56:55;6.63;;;1.02;;
46897;SDS011;32646;50.958;6.258;2023-04-03T15:59:22;11.15;;;4.82;;
46897;SDS011;32646;50.958;6.258;2023-04-03T16:01:49;3.95;;;1.25;;
46897;SDS011;32646;50.958;6.258;2023-04-03T16:04:18;8.35;;;2.85;;
46897;SDS011;32646;50.958;6.258;2023-04-03T16:06:45;5.80;;;2.13;;
46897;SDS011;32646;50.958;6.258;2023-04-03T16:09:12;3.78;;;1.40;;
46897;SDS011;32646;50.958;6.258;2023-04-03T16:11:39;2.83;;;1.02;;
46897;SDS011;32646;50.958;6.258;2023-04-03T16:14:08;2.80;;;1.08;;
46897;SDS011;32646;50.958;6.258;2023-04-03T16:16:35;5.78;;;1.50;;
46897;SDS011;32646;50.958;6.258;2023-04-03T16:19:03;4.85;;;1.38;;
46897;SDS011;32646;50.958;6.258;2023-04-03T16:21:30;3.35;;;1.10;;
46897;SDS011;32646;50.958;6.258;2023-04-03T16:23:58;6.85;;;1.52;;
46897;SDS011;32646;50.958;6.258;2023-04-03T16:26:25;5.13;;;1.67;;
46897;SDS011;32646;50.958;6.258;2023-04-03T16:28:52;4.07;;;1.15;;
46897;SDS011;32646;50.958;6.258;2023-04-03T16:31:19;3.33;;;1.10;;
46897;SDS011;32646;50.958;6.258;2023-04-03T16:33:47;3.45;;;1.13;;
46897;SDS011;32646;50.958;6.258;2023-04-03T16:36:14;4.03;;;1.60;;
46897;SDS011;32646;50.958;6.258;2023-04-03T16:38:40;8.07;;;1.80;;
46897;SDS011;32646;50.958;6.258;2023-04-03T16:41:07;8.73;;;2.20;;
46897;SDS011;32646;50.958;6.258;2023-04-03T16:43:33;3.70;;;1.17;;